Time;durP1;ratioP1;P1;durP2;ratioP2;P2;SDS_P1;SDS_P2;PMS_P1;PMS_P2;Temp;Humidity;BMP_temperature;BMP_pressure;BME280_temperature;BME280_humidity;BME280_pressure;Samples;Min_cycle;Max_cycle;Signal;HPM_P1;HPM_P2
2021/01/06 00:00:27;;;;;;;1999.90;999.90;;;;;;;;;;5015727;28;20045;-80
2021/01/06 00:02:52;;;;;;;1999.90;999.90;;;;;;;;;;5014509;28;20040;-80
2021/01/06 00:05:20;;;;;;;1999.90;999.90;;;;;;;;;;5017848;28;20030;-79
2021/01/06 00:07:46;;;;;;;1999.90;999.90;;;;;;;;;;5015261;28;20885;-80
2021/01/06 00:10:13;;;;;;;1999.90;999.90;;;;;;;;;;5026661;28;20379;-81
2021/01/06 00:12:42;;;;;;;1999.90;999.90;;;;;;;;;;5015933;28;20026;-80
2021/01/06 00:15:09;;;;;;;1999.90;999.90;;;;;;;;;;5023470;28;20029;-80
2021/01/06 00:17:34;;;;;;;1999.90;999.90;;;;;;;;;;5015377;28;20109;-79
2021/01/06 00:19:59;;;;;;;1999.90;999.90;;;;;;;;;;5015703;28;20565;-80
2021/01/06 00:22:25;;;;;;;1999.90;999.90;;;;;;;;;;5017359;28;20048;-80
2021/01/06 00:24:50;;;;;;;1999.90;999.90;;;;;;;;;;5023158;28;20482;-80
2021/01/06 00:27:16;;;;;;;1999.90;999.90;;;;;;;;;;5018605;28;20068;-80
2021/01/06 00:29:41;;;;;;;1999.90;999.90;;;;;;;;;;5021584;28;20048;-80
2021/01/06 00:32:06;;;;;;;1999.90;999.90;;;;;;;;;;5020696;28;20049;-80
2021/01/06 00:34:32;;;;;;;1999.90;999.90;;;;;;;;;;5017127;28;20021;-80
2021/01/06 00:36:57;;;;;;;1999.90;999.90;;;;;;;;;;5013892;28;20117;-79
2021/01/06 00:39:22;;;;;;;1999.90;999.90;;;;;;;;;;5023457;28;20052;-80
2021/01/06 00:41:48;;;;;;;1999.90;999.90;;;;;;;;;;5020068;28;20029;-79
2021/01/06 00:44:14;;;;;;;1999.90;999.90;;;;;;;;;;5018553;28;20029;-79
2021/01/06 00:46:39;;;;;;;1999.90;999.90;;;;;;;;;;5020086;28;20020;-80
2021/01/06 00:49:05;;;;;;;1999.90;999.90;;;;;;;;;;5020098;28;20053;-80
2021/01/06 00:51:31;;;;;;;1999.90;999.90;;;;;;;;;;5020878;28;20033;-80
2021/01/06 00:53:57;;;;;;;1999.90;999.90;;;;;;;;;;5023697;28;20029;-80
2021/01/06 00:56:32;;;;;;;1999.90;999.90;;;;;;;;;;5033755;28;20026;-80
2021/01/06 00:58:59;;;;;;;1999.90;999.90;;;;;;;;;;5020317;28;20069;-80
2021/01/06 01:01:27;;;;;;;1999.90;999.90;;;;;;;;;;5017186;28;20783;-80
2021/01/06 01:03:53;;;;;;;1999.90;999.90;;;;;;;;;;5019829;28;20137;-80
2021/01/06 01:06:23;;;;;;;1999.90;999.90;;;;;;;;;;5023382;28;20108;-80
2021/01/06 01:08:48;;;;;;;1999.90;999.90;;;;;;;;;;5018167;28;20029;-80
2021/01/06 01:11:13;;;;;;;1999.90;999.90;;;;;;;;;;5019205;28;20021;-80
2021/01/06 01:13:39;;;;;;;1999.90;999.90;;;;;;;;;;5019015;28;20025;-80
2021/01/06 01:16:05;;;;;;;1999.90;999.90;;;;;;;;;;5020625;28;20033;-80
2021/01/06 01:18:30;;;;;;;1999.90;999.90;;;;;;;;;;5021886;28;20025;-80
2021/01/06 01:20:56;;;;;;;1999.90;999.90;;;;;;;;;;5016449;28;20069;-80
2021/01/06 01:23:23;;;;;;;1999.90;999.90;;;;;;;;;;5020959;28;20372;-79
2021/01/06 01:25:48;;;;;;;1999.90;999.90;;;;;;;;;;5021865;28;20025;-81
2021/01/06 01:28:14;;;;;;;1999.90;999.90;;;;;;;;;;5019539;28;20033;-80
2021/01/06 01:30:40;;;;;;;1999.90;999.90;;;;;;;;;;5013395;28;20029;-80
2021/01/06 01:33:06;;;;;;;1999.90;999.90;;;;;;;;;;5021840;28;20046;-80
2021/01/06 01:35:31;;;;;;;1999.90;999.90;;;;;;;;;;5014886;28;20021;-80
2021/01/06 01:37:58;;;;;;;1999.90;999.90;;;;;;;;;;5018022;28;20086;-80
2021/01/06 01:40:23;;;;;;;1999.90;999.90;;;;;;;;;;5020671;28;20030;-81
2021/01/06 01:42:52;;;;;;;1999.90;999.90;;;;;;;;;;5022298;28;20039;-80
2021/01/06 01:45:18;;;;;;;1999.90;999.90;;;;;;;;;;5019711;28;20017;-80
2021/01/06 01:47:49;;;;;;;1999.90;999.90;;;;;;;;;;5018985;28;20441;-80
2021/01/06 01:50:16;;;;;;;1999.90;999.90;;;;;;;;;;5021544;28;20084;-80
2021/01/06 01:52:45;;;;;;;1999.90;999.90;;;;;;;;;;5018840;28;20033;-80
2021/01/06 01:55:13;;;;;;;1999.90;999.90;;;;;;;;;;5022496;28;20029;-81
2021/01/06 01:57:44;;;;;;;1999.90;999.90;;;;;;;;;;5017123;28;20108;-80
2021/01/06 02:00:14;;;;;;;1999.90;999.90;;;;;;;;;;5023542;28;20025;-80
2021/01/06 02:02:46;;;;;;;1999.90;999.90;;;;;;;;;;5024188;28;20037;-80
2021/01/06 02:05:14;;;;;;;1999.90;999.90;;;;;;;;;;5021384;28;20524;-80
2021/01/06 02:07:44;;;;;;;1999.90;999.90;;;;;;;;;;5023514;28;20026;-80
2021/01/06 02:10:16;;;;;;;1999.90;999.90;;;;;;;;;;5017565;28;20037;-80
2021/01/06 02:12:47;;;;;;;1999.90;999.90;;;;;;;;;;5024890;28;20043;-79
2021/01/06 02:15:17;;;;;;;1999.90;999.90;;;;;;;;;;5027043;28;20034;-78
2021/01/06 02:17:43;;;;;;;1999.90;999.90;;;;;;;;;;5022415;28;20116;-79
2021/01/06 02:20:13;;;;;;;1999.90;999.90;;;;;;;;;;5027247;28;20045;-79
2021/01/06 02:22:38;;;;;;;1999.90;999.90;;;;;;;;;;5024352;28;20052;-80
2021/01/06 02:25:04;;;;;;;1999.90;999.90;;;;;;;;;;5023852;28;20018;-80
2021/01/06 02:27:29;;;;;;;1999.90;999.90;;;;;;;;;;5021247;28;20482;-79
2021/01/06 02:29:55;;;;;;;1999.90;999.90;;;;;;;;;;5019565;28;20109;-79
2021/01/06 02:32:20;;;;;;;1999.90;999.90;;;;;;;;;;5021958;28;20071;-80
2021/01/06 02:34:45;;;;;;;1999.90;999.90;;;;;;;;;;5016674;28;20034;-80
2021/01/06 02:37:12;;;;;;;1999.90;999.90;;;;;;;;;;5021429;28;20116;-80
2021/01/06 02:39:37;;;;;;;1999.90;999.90;;;;;;;;;;5021052;28;20040;-80
2021/01/06 02:42:03;;;;;;;1999.90;999.90;;;;;;;;;;5016099;28;20491;-81
2021/01/06 02:44:29;;;;;;;1999.90;999.90;;;;;;;;;;5024956;28;20402;-80
2021/01/06 02:46:55;;;;;;;1999.90;999.90;;;;;;;;;;5025372;28;20022;-81
2021/01/06 02:49:20;;;;;;;1999.90;999.90;;;;;;;;;;5019818;28;20510;-81
2021/01/06 02:51:48;;;;;;;1999.90;999.90;;;;;;;;;;5019230;28;20045;-81
2021/01/06 02:54:17;;;;;;;1999.90;999.90;;;;;;;;;;5016792;28;20018;-81
2021/01/06 02:56:42;;;;;;;1999.90;999.90;;;;;;;;;;5021193;28;20621;-79
2021/01/06 02:59:09;;;;;;;1999.90;999.90;;;;;;;;;;5023088;28;20101;-80
2021/01/06 03:01:37;;;;;;;1999.90;999.90;;;;;;;;;;5006577;28;20073;-80
2021/01/06 03:04:04;;;;;;;1999.90;999.90;;;;;;;;;;5022657;28;20042;-80
2021/01/06 03:06:32;;;;;;;1999.90;999.90;;;;;;;;;;5039426;28;20397;-80
2021/01/06 03:08:57;;;;;;;1999.90;999.90;;;;;;;;;;5022248;28;20010;-80
2021/01/06 03:11:23;;;;;;;1999.90;999.90;;;;;;;;;;5020900;28;20034;-80
2021/01/06 03:13:48;;;;;;;1999.90;999.90;;;;;;;;;;5020833;28;20378;-80
2021/01/06 03:16:14;;;;;;;1999.90;999.90;;;;;;;;;;5024915;28;20039;-80
2021/01/06 03:18:39;;;;;;;1999.90;999.90;;;;;;;;;;5024383;28;20119;-80
2021/01/06 03:21:06;;;;;;;1999.90;999.90;;;;;;;;;;5020645;28;20532;-81
2021/01/06 03:23:42;;;;;;;1999.90;999.90;;;;;;;;;;5018688;28;20052;-80
2021/01/06 03:26:10;;;;;;;1999.90;999.90;;;;;;;;;;5019941;28;20061;-80
2021/01/06 03:28:36;;;;;;;1999.90;999.90;;;;;;;;;;5020833;28;20452;-81
2021/01/06 03:31:04;;;;;;;1999.90;999.90;;;;;;;;;;5026429;28;20038;-80
2021/01/06 03:33:45;;;;;;;1999.90;999.90;;;;;;;;;;5023549;28;20018;-80
2021/01/06 03:36:15;;;;;;;1999.90;999.90;;;;;;;;;;5019174;28;20029;-80
2021/01/06 03:38:43;;;;;;;1999.90;999.90;;;;;;;;;;5018034;28;20022;-80
2021/01/06 03:41:09;;;;;;;1999.90;999.90;;;;;;;;;;5020699;28;20030;-81
2021/01/06 03:43:39;;;;;;;1999.90;999.90;;;;;;;;;;5020446;28;20029;-81
2021/01/06 03:46:10;;;;;;;1999.90;999.90;;;;;;;;;;5020552;28;20026;-80
2021/01/06 03:48:53;;;;;;;1999.90;999.90;;;;;;;;;;5016098;28;20513;-81
2021/01/06 03:51:32;;;;;;;1999.90;999.90;;;;;;;;;;5023071;28;20433;-81
2021/01/06 03:54:01;;;;;;;1999.90;999.90;;;;;;;;;;5018963;28;20426;-80
2021/01/06 03:56:27;;;;;;;1999.90;999.90;;;;;;;;;;5020934;28;20113;-81
2021/01/06 03:58:53;;;;;;;1999.90;999.90;;;;;;;;;;5020714;28;20471;-81
2021/01/06 04:01:37;;;;;;;1999.90;999.90;;;;;;;;;;5015404;28;20104;-82
2021/01/06 04:04:03;;;;;;;1999.90;999.90;;;;;;;;;;5014525;28;20121;-79
2021/01/06 04:06:30;;;;;;;1999.90;999.90;;;;;;;;;;5020303;28;20109;-80
2021/01/06 04:08:57;;;;;;;1999.90;999.90;;;;;;;;;;5018271;28;20088;-81
2021/01/06 04:11:27;;;;;;;1999.90;999.90;;;;;;;;;;5015549;28;20096;-81
2021/01/06 04:13:52;;;;;;;1999.90;999.90;;;;;;;;;;5013826;28;20041;-81
2021/01/06 04:16:18;;;;;;;1999.90;999.90;;;;;;;;;;5020197;28;20026;-81
2021/01/06 04:18:44;;;;;;;1999.90;999.90;;;;;;;;;;5019231;28;20025;-82
2021/01/06 04:21:09;;;;;;;1999.90;999.90;;;;;;;;;;5020146;28;20087;-81
2021/01/06 04:23:35;;;;;;;1999.90;999.90;;;;;;;;;;5023475;28;20557;-81
2021/01/06 04:26:00;;;;;;;1999.90;999.90;;;;;;;;;;5013572;28;20041;-82
2021/01/06 04:28:27;;;;;;;1999.90;999.90;;;;;;;;;;5024177;28;20029;-81
2021/01/06 04:30:54;;;;;;;1999.90;999.90;;;;;;;;;;5017865;28;20037;-81
2021/01/06 04:33:28;;;;;;;1999.90;999.90;;;;;;;;;;5020078;28;20579;-82
2021/01/06 04:35:54;;;;;;;1999.90;999.90;;;;;;;;;;5016267;28;20044;-82
2021/01/06 04:38:40;;;;;;;1999.90;999.90;;;;;;;;;;5015336;28;20048;-83
2021/01/06 04:41:31;;;;;;;1999.90;999.90;;;;;;;;;;5016567;28;20127;-83
2021/01/06 04:44:15;;;;;;;1999.90;999.90;;;;;;;;;;5006458;28;20041;-83
2021/01/06 04:46:41;;;;;;;1999.90;999.90;;;;;;;;;;5017615;28;20029;-83
2021/01/06 04:49:12;;;;;;;1999.90;999.90;;;;;;;;;;5015977;28;20038;-82
2021/01/06 04:51:42;;;;;;;1999.90;999.90;;;;;;;;;;5014873;28;20386;-82
2021/01/06 04:54:20;;;;;;;1999.90;999.90;;;;;;;;;;5017411;28;20026;-82
2021/01/06 04:56:45;;;;;;;1999.90;999.90;;;;;;;;;;5017465;28;20486;-82
2021/01/06 04:59:17;;;;;;;1999.90;999.90;;;;;;;;;;5018647;28;20040;-82
2021/01/06 05:01:42;;;;;;;1999.90;999.90;;;;;;;;;;5019146;28;20484;-81
2021/01/06 05:04:26;;;;;;;1999.90;999.90;;;;;;;;;;5018952;28;20109;-82
2021/01/06 05:06:56;;;;;;;1999.90;999.90;;;;;;;;;;5017623;28;20040;-81
2021/01/06 05:09:26;;;;;;;1999.90;999.90;;;;;;;;;;5016301;28;20026;-81
2021/01/06 05:11:57;;;;;;;1999.90;999.90;;;;;;;;;;5018132;28;20037;-82
2021/01/06 05:14:28;;;;;;;1999.90;999.90;;;;;;;;;;5016046;28;20032;-82
2021/01/06 05:16:53;;;;;;;1999.90;999.90;;;;;;;;;;5020877;28;20832;-82
2021/01/06 05:19:23;;;;;;;1999.90;999.90;;;;;;;;;;5015918;28;20021;-82
2021/01/06 05:21:49;;;;;;;1999.90;999.90;;;;;;;;;;5015294;28;20505;-81
2021/01/06 05:24:33;;;;;;;1999.90;999.90;;;;;;;;;;5018648;28;20017;-82
2021/01/06 05:27:14;;;;;;;1999.90;999.90;;;;;;;;;;5016983;28;20029;-82
2021/01/06 05:29:40;;;;;;;1999.90;999.90;;;;;;;;;;5016303;28;20033;-82
2021/01/06 05:32:05;;;;;;;1999.90;999.90;;;;;;;;;;5013635;28;20052;-82
2021/01/06 05:34:33;;;;;;;1999.90;999.90;;;;;;;;;;5018793;28;20125;-83
2021/01/06 05:36:59;;;;;;;1999.90;999.90;;;;;;;;;;5022620;28;20448;-83
2021/01/06 05:39:27;;;;;;;1999.90;999.90;;;;;;;;;;5022854;28;20125;-82
2021/01/06 05:41:57;;;;;;;1999.90;999.90;;;;;;;;;;5015209;28;20030;-83
2021/01/06 05:44:23;;;;;;;1999.90;999.90;;;;;;;;;;5018801;28;20017;-82
2021/01/06 05:46:48;;;;;;;1999.90;999.90;;;;;;;;;;5015455;28;20381;-82
2021/01/06 05:49:20;;;;;;;1999.90;999.90;;;;;;;;;;5015560;28;20166;-83
2021/01/06 05:51:54;;;;;;;1999.90;999.90;;;;;;;;;;5018528;28;20096;-82
2021/01/06 05:54:34;;;;;;;1999.90;999.90;;;;;;;;;;5015550;28;20069;-83
2021/01/06 05:57:10;;;;;;;1999.90;999.90;;;;;;;;;;5018406;28;20469;-83
2021/01/06 05:59:35;;;;;;;1999.90;999.90;;;;;;;;;;5020042;28;20034;-83
2021/01/06 06:02:19;;;;;;;1999.90;999.90;;;;;;;;;;5025251;28;20503;-83
2021/01/06 06:05:03;;;;;;;1999.90;999.90;;;;;;;;;;5016079;28;20041;-83
2021/01/06 06:07:48;;;;;;;1999.90;999.90;;;;;;;;;;5025000;28;20033;-84
2021/01/06 06:10:29;;;;;;;1999.90;999.90;;;;;;;;;;5017198;28;20540;-82
2021/01/06 06:12:59;;;;;;;1999.90;999.90;;;;;;;;;;5018097;28;20097;-83
2021/01/06 06:15:41;;;;;;;1999.90;999.90;;;;;;;;;;5017651;28;20030;-84
2021/01/06 06:18:20;;;;;;;1999.90;999.90;;;;;;;;;;5016487;28;20033;-84
2021/01/06 06:20:54;;;;;;;1999.90;999.90;;;;;;;;;;5016357;28;20064;-82
2021/01/06 06:23:31;;;;;;;1999.90;999.90;;;;;;;;;;5020784;28;20482;-83
2021/01/06 06:26:15;;;;;;;1999.90;999.90;;;;;;;;;;5018304;28;20053;-84
2021/01/06 06:28:49;;;;;;;1999.90;999.90;;;;;;;;;;5026073;28;20081;-83
2021/01/06 06:31:17;;;;;;;1999.90;999.90;;;;;;;;;;5019940;28;20029;-83
2021/01/06 06:33:43;;;;;;;1999.90;999.90;;;;;;;;;;5018832;28;20026;-83
2021/01/06 06:36:18;;;;;;;1999.90;999.90;;;;;;;;;;5016156;28;20088;-83
2021/01/06 06:38:45;;;;;;;;;;;;;;;;;;5021020;28;20556;-83
2021/01/06 06:41:23;;;;;;;1999.90;999.90;;;;;;;;;;5018844;28;19916;-83
2021/01/06 06:43:54;;;;;;;1999.90;999.90;;;;;;;;;;5021261;28;20021;-82
2021/01/06 06:46:38;;;;;;;1999.90;999.90;;;;;;;;;;5017839;28;20076;-83
2021/01/06 06:49:22;;;;;;;1999.90;999.90;;;;;;;;;;5022129;28;20107;-80
2021/01/06 06:51:51;;;;;;;1999.90;999.90;;;;;;;;;;5016864;28;20049;-80
2021/01/06 06:54:19;;;;;;;1999.90;999.90;;;;;;;;;;5021227;28;20116;-78
2021/01/06 06:56:51;;;;;;;1999.90;999.90;;;;;;;;;;5022155;28;20033;-79
2021/01/06 06:59:23;;;;;;;1999.90;999.90;;;;;;;;;;5016475;28;20037;-77
2021/01/06 07:01:49;;;;;;;1999.90;999.90;;;;;;;;;;5021201;28;20121;-78
2021/01/06 07:04:24;;;;;;;1999.90;999.90;;;;;;;;;;5017120;28;20026;-79
2021/01/06 07:06:52;;;;;;;1999.90;999.90;;;;;;;;;;5025624;28;20553;-79
2021/01/06 07:09:20;;;;;;;1999.90;999.90;;;;;;;;;;5017766;28;20497;-79
2021/01/06 07:11:47;;;;;;;1999.90;999.90;;;;;;;;;;5027018;28;20041;-79
2021/01/06 07:14:16;;;;;;;1999.90;999.90;;;;;;;;;;5021416;28;20025;-77
2021/01/06 07:16:54;;;;;;;1999.90;999.90;;;;;;;;;;5021272;28;20064;-78
2021/01/06 07:19:22;;;;;;;1999.90;999.90;;;;;;;;;;5025577;28;20030;-78
2021/01/06 07:21:50;;;;;;;1999.90;999.90;;;;;;;;;;5022600;28;20034;-79
2021/01/06 07:24:17;;;;;;;1999.90;999.90;;;;;;;;;;5031300;28;20033;-79
2021/01/06 07:26:58;;;;;;;1999.90;999.90;;;;;;;;;;5018562;28;20523;-79
2021/01/06 07:29:30;;;;;;;1999.90;999.90;;;;;;;;;;5017010;28;20056;-79
2021/01/06 07:32:09;;;;;;;1999.90;999.90;;;;;;;;;;5019629;28;20462;-79
2021/01/06 07:34:50;;;;;;;1999.90;999.90;;;;;;;;;;5021141;28;20025;-79
2021/01/06 07:37:27;;;;;;;1999.90;999.90;;;;;;;;;;5018416;28;20445;-79
2021/01/06 07:39:57;;;;;;;1999.90;999.90;;;;;;;;;;5021646;28;20528;-79
2021/01/06 07:42:31;;;;;;;1999.90;999.90;;;;;;;;;;5017789;28;20120;-78
2021/01/06 07:45:11;;;;;;;1999.90;999.90;;;;;;;;;;5021349;28;20041;-79
2021/01/06 07:47:40;;;;;;;1999.90;999.90;;;;;;;;;;5024112;28;20038;-77
2021/01/06 07:50:09;;;;;;;1999.90;999.90;;;;;;;;;;5016643;28;20045;-80
2021/01/06 07:52:52;;;;;;;1999.90;999.90;;;;;;;;;;5020999;28;20061;-81
2021/01/06 07:55:28;;;;;;;1999.90;999.90;;;;;;;;;;5020691;28;20025;-80
2021/01/06 07:58:09;;;;;;;1999.90;999.90;;;;;;;;;;5020578;28;20084;-80
2021/01/06 08:00:40;;;;;;;1999.90;999.90;;;;;;;;;;5019849;28;20742;-81
2021/01/06 08:03:12;;;;;;;1999.90;999.90;;;;;;;;;;5020081;28;20116;-80
2021/01/06 08:05:37;;;;;;;1999.90;999.90;;;;;;;;;;5023056;28;20057;-80
2021/01/06 08:08:03;;;;;;;1999.90;999.90;;;;;;;;;;5020376;28;20068;-80
2021/01/06 08:10:29;;;;;;;1999.90;999.90;;;;;;;;;;5016153;28;20093;-80
2021/01/06 08:13:27;;;;;;;1999.90;999.90;;;;;;;;;;5019311;28;22225;-80
2021/01/06 08:15:54;;;;;;;1999.90;999.90;;;;;;;;;;5011580;28;20092;-80
2021/01/06 08:18:38;;;;;;;1999.90;999.90;;;;;;;;;;5017732;28;20018;-80
2021/01/06 08:21:07;;;;;;;1999.90;999.90;;;;;;;;;;5017983;28;20037;-80
2021/01/06 08:23:51;;;;;;;1999.90;999.90;;;;;;;;;;5018812;28;20500;-80
2021/01/06 08:26:27;;;;;;;1999.90;999.90;;;;;;;;;;5019532;28;20390;-79
2021/01/06 08:29:12;;;;;;;1999.90;999.90;;;;;;;;;;5020316;28;20038;-79
2021/01/06 08:31:38;;;;;;;1999.90;999.90;;;;;;;;;;5028478;28;20117;-79
2021/01/06 08:34:04;;;;;;;1999.90;999.90;;;;;;;;;;5014099;28;20105;-78
2021/01/06 08:36:36;;;;;;;1999.90;999.90;;;;;;;;;;5014090;28;20105;-78
2021/01/06 08:39:18;;;;;;;1999.90;999.90;;;;;;;;;;5019112;28;20120;-78
2021/01/06 08:41:44;;;;;;;1999.90;999.90;;;;;;;;;;5017834;28;20037;-79
2021/01/06 08:44:25;;;;;;;1999.90;999.90;;;;;;;;;;5016885;28;20021;-78
2021/01/06 08:46:54;;;;;;;1999.90;999.90;;;;;;;;;;5022361;28;20033;-79
2021/01/06 08:49:22;;;;;;;1999.90;999.90;;;;;;;;;;5020375;28;20045;-78
2021/01/06 08:51:48;;;;;;;1999.90;999.90;;;;;;;;;;5021035;28;20034;-78
2021/01/06 08:54:14;;;;;;;1999.90;999.90;;;;;;;;;;5020723;28;20021;-78
2021/01/06 08:56:40;;;;;;;1999.90;999.90;;;;;;;;;;5021102;28;20029;-77
2021/01/06 08:59:22;;;;;;;1999.90;999.90;;;;;;;;;;5021101;28;20017;-78
2021/01/06 09:01:50;;;;;;;1999.90;999.90;;;;;;;;;;5022951;28;20117;-78
2021/01/06 09:04:31;;;;;;;1999.90;999.90;;;;;;;;;;5015777;28;20029;-78
2021/01/06 09:07:03;;;;;;;1999.90;999.90;;;;;;;;;;5023248;28;20046;-79
2021/01/06 09:09:31;;;;;;;1999.90;999.90;;;;;;;;;;5035862;28;20490;-79
2021/01/06 09:11:57;;;;;;;1999.90;999.90;;;;;;;;;;5015845;28;20022;-79
2021/01/06 09:14:39;;;;;;;1999.90;999.90;;;;;;;;;;5021776;28;20061;-80
2021/01/06 09:17:04;;;;;;;1999.90;999.90;;;;;;;;;;5019804;28;20037;-79
2021/01/06 09:19:42;;;;;;;1999.90;999.90;;;;;;;;;;5015034;28;20022;-78
2021/01/06 09:22:09;;;;;;;1999.90;999.90;;;;;;;;;;5025257;28;20450;-79
2021/01/06 09:24:36;;;;;;;1999.90;999.90;;;;;;;;;;5016156;28;20060;-78
2021/01/06 09:27:05;;;;;;;1999.90;999.90;;;;;;;;;;5015987;28;20060;-79
2021/01/06 09:29:38;;;;;;;1999.90;999.90;;;;;;;;;;5020578;28;20025;-78
2021/01/06 09:32:08;;;;;;;1999.90;999.90;;;;;;;;;;5021347;28;20037;-82
2021/01/06 09:34:36;;;;;;;1999.90;999.90;;;;;;;;;;5024506;28;20050;-78
2021/01/06 09:37:01;;;;;;;1999.90;999.90;;;;;;;;;;5018494;28;20030;-77
2021/01/06 09:39:29;;;;;;;1999.90;999.90;;;;;;;;;;5018244;28;20217;-77
2021/01/06 09:41:56;;;;;;;1999.90;999.90;;;;;;;;;;5017045;28;20033;-78
2021/01/06 09:44:21;;;;;;;1999.90;999.90;;;;;;;;;;5015579;28;20034;-78
2021/01/06 09:46:59;;;;;;;1999.90;999.90;;;;;;;;;;5013700;28;20029;-78
2021/01/06 09:49:42;;;;;;;1999.90;999.90;;;;;;;;;;5013984;28;20047;-77
2021/01/06 09:52:15;;;;;;;1999.90;999.90;;;;;;;;;;5021888;28;20598;-78
2021/01/06 09:54:40;;;;;;;1999.90;999.90;;;;;;;;;;5017269;28;20026;-78
2021/01/06 09:57:11;;;;;;;1999.90;999.90;;;;;;;;;;5024726;28;20083;-77
2021/01/06 09:59:37;;;;;;;1999.90;999.90;;;;;;;;;;5011034;28;20042;-78
2021/01/06 10:02:07;;;;;;;1999.90;999.90;;;;;;;;;;5001198;28;20121;-77
2021/01/06 10:04:35;;;;;;;1999.90;999.90;;;;;;;;;;5021963;28;20026;-77
2021/01/06 10:07:04;;;;;;;1999.90;999.90;;;;;;;;;;5021704;28;20067;-77
2021/01/06 10:09:35;;;;;;;1999.90;999.90;;;;;;;;;;5018350;28;20018;-77
2021/01/06 10:12:10;;;;;;;1999.90;999.90;;;;;;;;;;5019459;28;20033;-77
2021/01/06 10:14:54;;;;;;;1999.90;999.90;;;;;;;;;;5018143;28;20503;-77
2021/01/06 10:17:24;;;;;;;1999.90;999.90;;;;;;;;;;5019071;28;20095;-77
2021/01/06 10:19:50;;;;;;;1999.90;999.90;;;;;;;;;;5020873;28;20030;-76
2021/01/06 10:22:25;;;;;;;1999.90;999.90;;;;;;;;;;5006954;28;20546;-85
2021/01/06 10:24:53;;;;;;;1999.90;999.90;;;;;;;;;;5028097;28;20672;-82
2021/01/06 10:27:22;;;;;;;1999.90;999.90;;;;;;;;;;5022422;28;20449;-83
2021/01/06 10:29:49;;;;;;;1999.90;999.90;;;;;;;;;;5030212;28;20420;-82
2021/01/06 10:32:14;;;;;;;1999.90;999.90;;;;;;;;;;5026054;28;20017;-78
2021/01/06 10:34:47;;;;;;;1999.90;999.90;;;;;;;;;;5022832;28;20036;-78
2021/01/06 10:37:24;;;;;;;1999.90;999.90;;;;;;;;;;5012181;28;20029;-78
2021/01/06 10:39:52;;;;;;;1999.90;999.90;;;;;;;;;;5023181;28;20104;-78
2021/01/06 10:42:17;;;;;;;1999.90;999.90;;;;;;;;;;5019329;28;20030;-78
2021/01/06 10:44:52;;;;;;;1999.90;999.90;;;;;;;;;;5023759;28;20047;-79
2021/01/06 10:47:29;;;;;;;1999.90;999.90;;;;;;;;;;5019178;28;20030;-78
2021/01/06 10:49:57;;;;;;;1999.90;999.90;;;;;;;;;;5015278;28;20065;-78
2021/01/06 10:52:42;;;;;;;1999.90;999.90;;;;;;;;;;5024010;28;20090;-83
2021/01/06 10:55:16;;;;;;;1999.90;999.90;;;;;;;;;;5020016;28;20092;-77
2021/01/06 10:57:49;;;;;;;1999.90;999.90;;;;;;;;;;5022364;28;20022;-80
2021/01/06 11:00:15;;;;;;;1999.90;999.90;;;;;;;;;;5021727;28;20033;-79
2021/01/06 11:02:59;;;;;;;1999.90;999.90;;;;;;;;;;5019432;28;20076;-79
2021/01/06 11:05:43;;;;;;;1999.90;999.90;;;;;;;;;;5030085;28;20029;-80
2021/01/06 11:08:28;;;;;;;1999.90;999.90;;;;;;;;;;5020252;28;20488;-78
2021/01/06 11:11:12;;;;;;;1999.90;999.90;;;;;;;;;;5018550;28;20464;-78
2021/01/06 11:13:56;;;;;;;1999.90;999.90;;;;;;;;;;5015441;28;20026;-80
2021/01/06 11:16:34;;;;;;;1999.90;999.90;;;;;;;;;;5023956;28;20026;-80
2021/01/06 11:19:00;;;;;;;1999.90;999.90;;;;;;;;;;5021138;28;20026;-79
2021/01/06 11:21:41;;;;;;;1999.90;999.90;;;;;;;;;;5028019;28;20049;-79
2021/01/06 11:24:25;;;;;;;1999.90;999.90;;;;;;;;;;5024831;28;20132;-79
2021/01/06 11:26:54;;;;;;;1999.90;999.90;;;;;;;;;;5020391;28;20022;-79
2021/01/06 11:29:22;;;;;;;1999.90;999.90;;;;;;;;;;5026659;28;20045;-79
2021/01/06 11:32:07;;;;;;;1999.90;999.90;;;;;;;;;;5025404;28;20120;-79
2021/01/06 11:34:34;;;;;;;1999.90;999.90;;;;;;;;;;5018438;28;20061;-79
2021/01/06 11:37:01;;;;;;;1999.90;999.90;;;;;;;;;;5022164;28;20109;-79
2021/01/06 11:39:26;;;;;;;1999.90;999.90;;;;;;;;;;5017514;28;20666;-78
2021/01/06 11:42:30;;;;;;;1999.90;999.90;;;;;;;;;;5030722;28;20039;-79
2021/01/06 11:45:10;;;;;;;1999.90;999.90;;;;;;;;;;4998864;28;20037;-78
2021/01/06 11:47:44;;;;;;;1999.90;999.90;;;;;;;;;;5000652;28;20042;-79
2021/01/06 11:50:15;;;;;;;1999.90;999.90;;;;;;;;;;5011242;28;20795;-78
2021/01/06 11:52:48;;;;;;;1999.90;999.90;;;;;;;;;;5024171;28;20494;-79
2021/01/06 11:55:14;;;;;;;1999.90;999.90;;;;;;;;;;5027476;28;20120;-78
2021/01/06 11:57:42;;;;;;;1999.90;999.90;;;;;;;;;;5020185;28;20096;-78
2021/01/06 12:00:17;;;;;;;1999.90;999.90;;;;;;;;;;5018473;28;20113;-78
2021/01/06 12:02:55;;;;;;;1999.90;999.90;;;;;;;;;;5019859;28;20498;-78
2021/01/06 12:05:23;;;;;;;1999.90;999.90;;;;;;;;;;5017035;28;20401;-78
2021/01/06 12:08:09;;;;;;;1999.90;999.90;;;;;;;;;;5023578;28;20017;-79
2021/01/06 12:10:37;;;;;;;1999.90;999.90;;;;;;;;;;5019057;28;20040;-78
2021/01/06 12:13:23;;;;;;;1999.90;999.90;;;;;;;;;;5021560;28;20029;-78
2021/01/06 12:15:52;;;;;;;1999.90;999.90;;;;;;;;;;5022083;28;20041;-78
2021/01/06 12:18:37;;;;;;;1999.90;999.90;;;;;;;;;;5020282;28;20046;-78
2021/01/06 12:21:18;;;;;;;1999.90;999.90;;;;;;;;;;5014457;28;20049;-80
2021/01/06 12:23:44;;;;;;;1999.90;999.90;;;;;;;;;;5020711;28;20124;-78
2021/01/06 12:26:28;;;;;;;1999.90;999.90;;;;;;;;;;5015791;28;20117;-77
2021/01/06 12:28:57;;;;;;;1999.90;999.90;;;;;;;;;;5021256;28;20025;-78
2021/01/06 12:31:38;;;;;;;1999.90;999.90;;;;;;;;;;5023847;28;20116;-78
2021/01/06 12:34:20;;;;;;;1999.90;999.90;;;;;;;;;;5020893;28;20033;-79
2021/01/06 12:37:08;;;;;;;1999.90;999.90;;;;;;;;;;5015795;28;20029;-79
2021/01/06 12:39:36;;;;;;;1999.90;999.90;;;;;;;;;;5025162;28;20048;-79
2021/01/06 12:42:21;;;;;;;1999.90;999.90;;;;;;;;;;5023825;28;20022;-78
2021/01/06 12:45:05;;;;;;;1999.90;999.90;;;;;;;;;;5008968;28;20045;-78
2021/01/06 12:47:36;;;;;;;1999.90;999.90;;;;;;;;;;5021889;28;20504;-78
2021/01/06 12:50:20;;;;;;;1999.90;999.90;;;;;;;;;;5022079;28;20041;-78
2021/01/06 12:52:52;;;;;;;1999.90;999.90;;;;;;;;;;5017065;28;20046;-78
2021/01/06 12:55:25;;;;;;;1999.90;999.90;;;;;;;;;;5020290;28;20104;-78
2021/01/06 12:57:50;;;;;;;1999.90;999.90;;;;;;;;;;5019027;28;20065;-78
2021/01/06 13:00:22;;;;;;;1999.90;999.90;;;;;;;;;;5012384;28;20096;-78
2021/01/06 13:02:47;;;;;;;1999.90;999.90;;;;;;;;;;5023604;28;20497;-79
2021/01/06 13:05:27;;;;;;;1999.90;999.90;;;;;;;;;;5013933;28;20024;-78
2021/01/06 13:07:55;;;;;;;1999.90;999.90;;;;;;;;;;5015875;28;20406;-79
2021/01/06 13:10:36;;;;;;;1999.90;999.90;;;;;;;;;;5014991;28;20022;-79
2021/01/06 13:13:21;;;;;;;1999.90;999.90;;;;;;;;;;5019048;28;20474;-78
2021/01/06 13:16:00;;;;;;;1999.90;999.90;;;;;;;;;;5018997;28;20061;-78
2021/01/06 13:18:41;;;;;;;1999.90;999.90;;;;;;;;;;5018514;28;20382;-78
2021/01/06 13:21:21;;;;;;;1999.90;999.90;;;;;;;;;;5017717;28;20083;-79
2021/01/06 13:24:01;;;;;;;1999.90;999.90;;;;;;;;;;5015290;28;20022;-79
2021/01/06 13:26:30;;;;;;;1999.90;999.90;;;;;;;;;;5016576;28;20029;-78
2021/01/06 13:28:58;;;;;;;1999.90;999.90;;;;;;;;;;5018065;28;20121;-77
2021/01/06 13:31:28;;;;;;;1999.90;999.90;;;;;;;;;;5017086;28;20026;-78
2021/01/06 13:33:54;;;;;;;1999.90;999.90;;;;;;;;;;5017358;28;20555;-78
2021/01/06 13:36:21;;;;;;;1999.90;999.90;;;;;;;;;;5020387;28;20022;-78
2021/01/06 13:39:01;;;;;;;1999.90;999.90;;;;;;;;;;5021187;28;20080;-78
2021/01/06 13:41:31;;;;;;;1999.90;999.90;;;;;;;;;;5038079;28;20037;-77
2021/01/06 13:43:59;;;;;;;1999.90;999.90;;;;;;;;;;5021383;28;20073;-78
2021/01/06 13:46:37;;;;;;;1999.90;999.90;;;;;;;;;;5020580;28;20064;-77
2021/01/06 13:49:06;;;;;;;1999.90;999.90;;;;;;;;;;5019435;28;20041;-78
2021/01/06 13:51:41;;;;;;;1999.90;999.90;;;;;;;;;;5021843;28;20034;-79
2021/01/06 13:54:20;;;;;;;1999.90;999.90;;;;;;;;;;5027397;28;20030;-78
2021/01/06 13:56:55;;;;;;;1999.90;999.90;;;;;;;;;;5021220;28;20398;-79
2021/01/06 13:59:30;;;;;;;1999.90;999.90;;;;;;;;;;5022658;28;20069;-79
2021/01/06 14:01:57;;;;;;;1999.90;999.90;;;;;;;;;;5019070;28;20422;-79
2021/01/06 14:04:23;;;;;;;1999.90;999.90;;;;;;;;;;5018365;28;20013;-78